Time;durP1;ratioP1;P1;durP2;ratioP2;P2;SDS_P1;SDS_P2;PMS_P1;PMS_P2;Temp;Humidity;BMP_temperature;BMP_pressure;BME280_temperature;BME280_humidity;BME280_pressure;Samples;Min_cycle;Max_cycle;Signal;HPM_P1;HPM_P2
2023/12/17 00:54:44;;;;;;;18.35;11.95;;;;;;;3.88;70.80;101715.66;5082517;27;1439683;-90
2023/12/17 00:57:09;;;;;;;18.23;11.30;;;;;;;3.92;71.00;101722.31;5059112;28;20036;-90
2023/12/17 00:59:35;;;;;;;17.30;11.30;;;;;;;4.03;70.81;101740.63;5075956;28;20020;-88
2023/12/17 01:02:03;;;;;;;17.48;11.35;;;;;;;3.80;70.56;101716.47;5058932;28;20056;-90
2023/12/17 01:04:29;;;;;;;17.35;9.85;;;;;;;3.72;70.93;101710.31;5042423;28;20145;-91
2023/12/17 01:06:55;;;;;;;17.45;10.35;;;;;;;3.64;70.58;101703.97;5073336;28;20482;-90
2023/12/17 01:09:20;;;;;;;16.23;9.45;;;;;;;3.42;71.71;101702.78;5041110;28;20047;-90
2023/12/17 01:11:46;;;;;;;17.15;9.95;;;;;;;3.45;71.66;101714.94;5059135;28;20024;-90
2023/12/17 01:14:11;;;;;;;18.80;11.32;;;;;;;3.39;72.89;101704.94;5056328;28;20031;-90
2023/12/17 01:16:37;;;;;;;17.27;10.52;;;;;;;3.42;72.84;101701.94;5061418;28;20028;-90
2023/12/17 01:19:02;;;;;;;16.60;10.15;;;;;;;3.39;71.74;101689.78;5046877;28;20028;-90
2023/12/17 01:21:28;;;;;;;17.10;10.07;;;;;;;3.43;72.23;101693.78;5055375;28;20088;-90
2023/12/17 01:23:54;;;;;;;17.55;10.55;;;;;;;3.54;72.26;101710.44;5061431;28;20090;-91
2023/12/17 01:26:26;;;;;;;18.52;9.70;;;;;;;3.44;72.31;101697.28;5060907;28;20024;-91
2023/12/17 01:28:52;;;;;;;16.83;10.50;;;;;;;3.27;73.41;101683.09;5062081;28;20035;-90
2023/12/17 01:31:18;;;;;;;16.77;10.18;;;;;;;3.30;73.50;101703.22;5077662;28;20388;-91
2023/12/17 01:33:44;;;;;;;15.50;9.43;;;;;;;3.31;72.82;101703.06;5049788;28;20021;-90
2023/12/17 01:36:10;;;;;;;18.27;10.00;;;;;;;3.28;73.10;101695.44;5041784;28;20031;-90
2023/12/17 01:38:35;;;;;;;18.73;10.30;;;;;;;3.30;73.23;101704.09;5057369;28;20024;-90
2023/12/17 01:41:01;;;;;;;13.48;9.52;;;;;;;3.22;72.94;101696.91;5040748;28;20048;-91
2023/12/17 01:43:26;;;;;;;17.35;9.75;;;;;;;3.39;73.16;101726.22;5058092;28;20388;-91
2023/12/17 01:45:53;;;;;;;16.88;10.68;;;;;;;3.31;73.75;101718.22;5064128;28;20088;-90
2023/12/17 01:48:20;;;;;;;19.33;10.88;;;;;;;3.04;73.61;101683.69;5069498;28;20035;-90
2023/12/17 01:50:45;;;;;;;19.05;10.32;;;;;;;3.18;73.70;101697.41;5042955;28;20023;-90
2023/12/17 01:53:12;;;;;;;17.35;10.20;;;;;;;3.16;73.68;101702.06;5043407;28;20490;-90
2023/12/17 01:55:38;;;;;;;20.65;11.18;;;;;;;3.03;73.78;101690.03;5044371;28;20047;-90
2023/12/17 01:58:03;;;;;;;15.20;9.13;;;;;;;3.12;73.63;101677.56;5063389;28;20016;-90
2023/12/17 02:00:29;;;;;;;15.68;9.90;;;;;;;3.06;73.87;101680.06;5047793;28;20059;-91
2023/12/17 02:02:57;;;;;;;15.45;9.40;;;;;;;3.14;73.62;101691.56;5064230;28;20024;-91
2023/12/17 02:05:22;;;;;;;16.90;9.88;;;;;;;3.01;73.89;101684.03;5063631;28;20024;-91
2023/12/17 02:07:48;;;;;;;13.25;8.55;;;;;;;3.16;73.54;101710.88;5063206;28;20051;-91
2023/12/17 02:10:14;;;;;;;15.48;8.90;;;;;;;3.06;73.93;101685.38;5064199;28;20019;-91
2023/12/17 02:12:39;;;;;;;16.85;9.02;;;;;;;3.19;73.73;101712.34;5046684;28;20051;-91
2023/12/17 02:15:07;;;;;;;16.13;8.98;;;;;;;3.08;73.72;101694.03;5063183;28;20055;-91
2023/12/17 02:17:33;;;;;;;14.63;9.20;;;;;;;3.04;73.52;101694.34;5047805;28;20548;-90
2023/12/17 02:19:58;;;;;;;13.95;8.27;;;;;;;2.89;73.78;101690.66;5046726;28;20052;-90
2023/12/17 02:22:25;;;;;;;15.35;9.27;;;;;;;2.97;73.71;101693.34;5063452;28;20081;-91
2023/12/17 02:24:51;;;;;;;16.02;9.82;;;;;;;2.84;74.27;101684.97;5063870;28;20024;-92
2023/12/17 02:27:24;;;;;;;16.92;9.77;;;;;;;2.78;74.49;101697.09;5063284;28;20031;-91
2023/12/17 02:29:50;;;;;;;16.38;8.82;;;;;;;2.92;74.47;101713.44;5045941;28;20129;-91
2023/12/17 02:32:20;;;;;;;14.35;8.63;;;;;;;2.85;74.49;101709.75;5046827;28;20032;-90
2023/12/17 02:34:47;;;;;;;14.43;8.65;;;;;;;2.96;74.99;101717.44;5046565;28;20089;-91
2023/12/17 02:37:12;;;;;;;12.80;8.52;;;;;;;2.78;75.23;101709.53;5080542;28;20024;-91
2023/12/17 02:39:38;;;;;;;16.42;9.88;;;;;;;2.59;75.55;101689.34;5044743;28;20031;-91
2023/12/17 02:42:04;;;;;;;15.20;9.65;;;;;;;2.60;75.67;101715.78;5026167;28;20031;-90
2023/12/17 02:44:30;;;;;;;15.25;9.07;;;;;;;2.50;76.11;101714.22;5040919;28;20059;-91
2023/12/17 02:46:57;;;;;;;19.10;10.50;;;;;;;2.42;75.76;101704.38;5026361;28;20052;-91
2023/12/17 02:49:26;;;;;;;16.98;9.68;;;;;;;2.22;76.58;101686.00;5044301;28;20021;-90
2023/12/17 02:51:51;;;;;;;17.83;9.55;;;;;;;2.29;76.61;101703.97;5042134;28;20044;-90
2023/12/17 02:54:21;;;;;;;16.42;8.93;;;;;;;2.24;76.94;101715.03;5059422;28;20059;-91
2023/12/17 02:56:48;;;;;;;17.92;10.20;;;;;;;1.93;77.19;101680.13;5042881;28;20040;-91
2023/12/17 02:59:14;;;;;;;17.80;10.10;;;;;;;2.06;77.13;101693.03;5037992;28;20033;-90
2023/12/17 03:01:41;;;;;;;16.02;9.25;;;;;;;2.04;76.84;101690.50;5059327;28;20033;-91
2023/12/17 03:04:07;;;;;;;14.80;9.13;;;;;;;2.11;76.63;101696.84;5043001;28;20024;-91
2023/12/17 03:06:32;;;;;;;14.85;9.32;;;;;;;2.08;77.44;101709.66;5058263;28;20030;-91
2023/12/17 03:08:58;;;;;;;15.82;10.18;;;;;;;1.95;77.43;101712.66;5060199;28;20024;-91
2023/12/17 03:11:23;;;;;;;13.93;8.93;;;;;;;2.07;77.11;101724.72;5042934;28;20062;-91
2023/12/17 03:13:49;;;;;;;19.73;9.40;;;;;;;1.83;77.14;101693.50;5058793;28;20025;-90
2023/12/17 03:16:14;;;;;;;16.45;9.95;;;;;;;1.88;76.89;101699.19;5058938;28;20107;-90
2023/12/17 03:18:40;;;;;;;16.55;9.48;;;;;;;1.82;77.04;101705.09;5059079;28;20043;-90
2023/12/17 03:21:07;;;;;;;15.02;8.68;;;;;;;1.84;77.48;101715.59;5060000;28;20083;-93
2023/12/17 03:23:33;;;;;;;16.15;9.88;;;;;;;1.81;77.70;101709.59;5044221;28;20020;-94
2023/12/17 03:25:59;;;;;;;16.85;9.25;;;;;;;1.74;77.80;101708.53;5044043;28;20032;-94
2023/12/17 03:28:24;;;;;;;19.08;9.90;;;;;;;1.79;78.22;101724.00;5061775;28;20474;-94
2023/12/17 03:30:50;;;;;;;19.90;12.15;;;;;;;1.86;77.78;101742.81;5044069;28;20028;-95
2023/12/17 03:33:15;;;;;;;18.30;9.82;;;;;;;1.44;79.03;101708.91;5043610;28;20037;-94
2023/12/17 03:35:41;;;;;;;17.13;10.05;;;;;;;1.44;78.33;101706.25;5044154;28;20038;-94
2023/12/17 03:38:07;;;;;;;18.70;11.35;;;;;;;1.66;78.31;101737.69;5043273;28;20111;-96
2023/12/17 03:40:32;;;;;;;20.70;11.32;;;;;;;1.67;78.60;101726.06;5042870;28;20039;-96
2023/12/17 03:42:58;;;;;;;20.10;10.23;;;;;;;1.61;78.86;101747.91;5043737;28;20067;-94
2023/12/17 03:45:24;;;;;;;19.05;10.32;;;;;;;1.42;78.58;101722.34;5044244;28;20024;-96
2023/12/17 03:47:49;;;;;;;20.60;10.35;;;;;;;1.57;78.29;101762.47;5044279;28;20189;-94
2023/12/17 03:50:15;;;;;;;18.75;10.02;;;;;;;1.39;78.65;101734.09;5042636;28;20035;-94
2023/12/17 03:52:41;;;;;;;17.27;9.90;;;;;;;1.27;78.48;101721.19;5043453;28;20063;-96
2023/12/17 03:55:07;;;;;;;17.08;10.07;;;;;;;1.47;78.45;101735.97;5060849;28;20024;-94
2023/12/17 03:57:33;;;;;;;18.80;10.15;;;;;;;1.34;78.27;101715.09;5043546;28;20016;-95
2023/12/17 03:59:58;;;;;;;19.77;10.65;;;;;;;1.13;79.27;101715.38;5043057;28;20478;-94
2023/12/17 04:02:25;;;;;;;20.00;10.43;;;;;;;1.03;79.99;101717.25;5042980;28;20056;-95
2023/12/17 04:04:50;;;;;;;21.85;10.82;;;;;;;0.93;80.41;101730.56;5043188;28;20024;-93
2023/12/17 04:07:16;;;;;;;19.55;11.30;;;;;;;1.12;79.93;101750.00;5042199;28;20036;-92
2023/12/17 04:09:42;;;;;;;19.17;10.65;;;;;;;0.94;80.00;101734.06;5041559;28;20031;-92
2023/12/17 04:12:10;;;;;;;18.60;10.93;;;;;;;0.99;80.00;101739.75;5058514;28;20031;-93
2023/12/17 04:14:36;;;;;;;19.63;10.35;;;;;;;1.05;79.67;101738.34;5058346;28;20044;-93
2023/12/17 04:17:02;;;;;;;16.38;9.65;;;;;;;1.08;79.36;101720.31;5042147;28;20078;-91
2023/12/17 04:19:28;;;;;;;18.27;9.93;;;;;;;1.04;79.46;101718.94;5059691;28;20398;-92
2023/12/17 04:21:54;;;;;;;19.58;11.10;;;;;;;1.03;79.67;101719.06;5058534;28;20484;-93
2023/12/17 04:24:20;;;;;;;21.60;10.10;;;;;;;1.09;79.45;101723.78;5058504;28;20025;-92
2023/12/17 04:26:45;;;;;;;16.98;10.23;;;;;;;0.99;80.29;101710.56;5041860;28;20058;-93
2023/12/17 04:29:11;;;;;;;18.67;10.85;;;;;;;0.99;80.00;101723.84;5041883;28;20032;-93
2023/12/17 04:31:37;;;;;;;17.45;10.27;;;;;;;0.97;79.98;101726.63;5057983;28;20048;-92
2023/12/17 04:34:02;;;;;;;19.20;10.60;;;;;;;0.79;79.94;101712.50;5041615;28;20031;-92
2023/12/17 04:36:28;;;;;;;19.92;10.80;;;;;;;0.69;79.66;101706.41;5058898;28;20493;-92
2023/12/17 04:38:54;;;;;;;22.33;11.52;;;;;;;0.58;80.35;101720.66;5042348;28;20035;-93
2023/12/17 04:41:20;;;;;;;16.83;9.93;;;;;;;0.53;80.95;101721.09;5041397;28;20533;-92
2023/12/17 04:43:45;;;;;;;18.05;11.48;;;;;;;0.67;80.07;101743.66;5042084;28;20036;-93
2023/12/17 04:46:11;;;;;;;19.17;11.20;;;;;;;0.70;80.36;101742.53;5042719;28;20028;-92
2023/12/17 04:48:36;;;;;;;19.95;11.07;;;;;;;0.37;80.35;101700.50;5041600;28;20106;-92
2023/12/17 04:51:02;;;;;;;18.73;11.52;;;;;;;0.30;80.79;101702.06;5041885;28;20059;-91
2023/12/17 04:53:28;;;;;;;20.83;12.57;;;;;;;0.37;80.96;101721.72;5040974;28;20052;-93
2023/12/17 04:55:53;;;;;;;20.23;10.45;;;;;;;0.22;80.78;101704.59;5058694;28;20547;-92
2023/12/17 04:58:19;;;;;;;19.83;10.15;;;;;;;0.46;80.77;101750.97;5058401;28;20033;-93
2023/12/17 05:00:45;;;;;;;20.67;10.98;;;;;;;0.31;80.94;101732.88;5057036;28;20482;-94
2023/12/17 05:03:11;;;;;;;21.40;11.07;;;;;;;0.33;81.42;101741.53;5041402;28;20112;-93
2023/12/17 05:05:37;;;;;;;17.98;10.40;;;;;;;0.24;81.77;101730.94;5058110;28;20037;-92
2023/12/17 05:08:02;;;;;;;16.00;9.88;;;;;;;0.16;81.95;101727.16;5057778;28;20029;-93
2023/12/17 05:10:28;;;;;;;26.00;11.07;;;;;;;0.21;81.96;101729.41;5040608;28;20469;-93
2023/12/17 05:12:54;;;;;;;18.38;10.98;;;;;;;0.17;82.04;101728.03;5058862;28;20037;-92
2023/12/17 05:15:20;;;;;;;19.35;11.85;;;;;;;0.36;81.34;101751.81;5057496;28;20029;-93
2023/12/17 05:17:46;;;;;;;22.33;11.48;;;;;;;0.11;81.52;101716.19;5057984;28;20029;-92
2023/12/17 05:20:12;;;;;;;20.15;11.80;;;;;;;0.14;81.86;101718.53;5057761;28;20028;-93
2023/12/17 05:22:39;;;;;;;22.83;13.57;;;;;;;0.26;82.11;101748.34;5058038;28;20481;-93
2023/12/17 05:25:07;;;;;;;26.00;15.18;;;;;;;0.34;82.58;101760.91;5057732;28;20032;-91
2023/12/17 05:27:33;;;;;;;22.75;13.38;;;;;;;0.38;81.84;101747.22;5059808;28;20029;-92
2023/12/17 05:29:59;;;;;;;18.65;11.68;;;;;;;0.28;81.72;101738.44;5043053;28;20042;-93
2023/12/17 05:32:25;;;;;;;19.50;11.38;;;;;;;0.29;81.49;101745.44;5046644;28;20040;-91
2023/12/17 05:34:57;;;;;;;19.90;11.20;;;;;;;0.28;82.51;101749.06;5045432;28;20111;-92
2023/12/17 05:37:22;;;;;;;19.33;11.18;;;;;;;0.28;82.79;101741.09;5045004;28;20093;-92
2023/12/17 05:39:48;;;;;;;18.33;11.50;;;;;;;0.31;82.21;101743.47;5045725;28;20467;-92
2023/12/17 05:42:13;;;;;;;21.30;12.55;;;;;;;0.37;81.69;101756.16;5045267;28;20068;-93
2023/12/17 05:44:39;;;;;;;19.90;12.48;;;;;;;0.35;81.58;101736.06;5061676;28;20044;-92
2023/12/17 05:47:07;;;;;;;24.63;13.38;;;;;;;0.29;81.41;101724.25;5044294;28;20032;-92
2023/12/17 05:49:37;;;;;;;23.17;13.02;;;;;;;0.27;81.60;101728.00;5045210;28;20490;-92
2023/12/17 05:52:03;;;;;;;28.00;15.00;;;;;;;0.20;81.82;101733.03;5045028;28;20086;-93
2023/12/17 05:54:29;;;;;;;29.63;16.25;;;;;;;0.37;81.40;101750.00;5061900;28;20048;-92
2023/12/17 05:56:55;;;;;;;29.85;15.05;;;;;;;0.41;81.34;101754.03;5044800;28;20024;-92
2023/12/17 05:59:20;;;;;;;32.45;17.35;;;;;;;0.20;81.22;101727.72;5044865;28;20028;-92
2023/12/17 06:01:46;;;;;;;44.70;19.98;;;;;;;0.19;81.50;101718.13;5044226;28;20089;-93
2023/12/17 06:04:12;;;;;;;34.58;17.85;;;;;;;0.45;81.19;101770.50;5044474;28;20032;-91
2023/12/17 06:06:37;;;;;;;29.00;15.55;;;;;;;0.33;80.98;101754.78;5044512;28;20056;-92
2023/12/17 06:09:03;;;;;;;28.73;14.45;;;;;;;0.06;80.57;101730.81;5044138;28;20020;-92
2023/12/17 06:11:29;;;;;;;27.77;14.45;;;;;;;0.15;80.65;101744.06;5044398;28;20029;-93
2023/12/17 06:13:54;;;;;;;35.47;17.33;;;;;;;0.07;81.09;101741.28;5043966;28;20029;-93
2023/12/17 06:16:21;;;;;;;31.65;16.77;;;;;;;0.25;81.58;101781.16;5044319;28;20111;-93
2023/12/17 06:18:47;;;;;;;27.98;15.77;;;;;;;-0.01;82.03;101744.63;5044616;28;20052;-92
2023/12/17 06:21:26;;;;;;;29.88;16.70;;;;;;;0.11;81.76;101747.97;5044080;28;20036;-92
2023/12/17 06:23:57;;;;;;;25.13;15.30;;;;;;;0.08;82.36;101731.50;5043907;28;20025;-92
2023/12/17 06:26:25;;;;;;;25.08;14.75;;;;;;;0.32;82.78;101778.75;5045576;28;20528;-93
2023/12/17 06:28:51;;;;;;;25.83;14.63;;;;;;;0.23;82.47;101750.44;5045066;28;20375;-92
2023/12/17 06:31:17;;;;;;;29.70;13.75;;;;;;;0.14;82.82;101733.59;5061067;28;20044;-93
2023/12/17 06:33:43;;;;;;;25.08;13.27;;;;;;;0.27;82.13;101752.69;5043721;28;20070;-94
2023/12/17 06:36:09;;;;;;;25.80;14.63;;;;;;;0.33;82.74;101752.13;5044096;28;20476;-92
2023/12/17 06:38:35;;;;;;;25.67;14.60;;;;;;;0.39;81.97;101745.41;5043833;28;20050;-93
2023/12/17 06:41:00;;;;;;;25.55;15.07;;;;;;;0.45;82.40;101758.06;5044061;28;20013;-93
2023/12/17 06:43:26;;;;;;;24.88;15.20;;;;;;;0.47;81.95;101755.28;5043322;28;20058;-91
2023/12/17 06:45:52;;;;;;;25.10;15.88;;;;;;;0.48;81.72;101754.28;5060513;28;20024;-93
2023/12/17 06:48:18;;;;;;;22.42;13.35;;;;;;;0.58;81.13;101737.41;5044208;28;20056;-93
2023/12/17 06:50:44;;;;;;;20.27;12.85;;;;;;;0.73;80.58;101752.84;5061104;28;20042;-93
2023/12/17 06:53:15;;;;;;;18.15;12.05;;;;;;;0.74;80.39;101743.91;5037324;28;20454;-93
2023/12/17 06:55:44;;;;;;;24.87;14.33;;;;;;;0.78;80.05;101753.25;5005380;28;20029;-93
2023/12/17 06:58:10;;;;;;;25.27;15.70;;;;;;;0.78;80.48;101766.50;5020801;28;20025;-93
2023/12/17 07:00:36;;;;;;;25.42;15.43;;;;;;;0.88;80.10;101767.31;5003962;28;20120;-94
2023/12/17 07:03:02;;;;;;;25.20;15.82;;;;;;;0.84;80.04;101738.56;5036950;28;20107;-93
2023/12/17 07:05:27;;;;;;;25.02;14.38;;;;;;;0.87;79.63;101738.28;5020485;28;20494;-92
2023/12/17 07:07:53;;;;;;;25.38;17.27;;;;;;;0.88;80.09;101743.44;5020929;28;20033;-93
2023/12/17 07:10:20;;;;;;;25.98;15.02;;;;;;;0.92;80.19;101743.97;5020431;28;20021;-93
2023/12/17 07:12:45;;;;;;;24.23;14.52;;;;;;;1.05;80.34;101762.22;5020716;28;20037;-93
2023/12/17 07:15:11;;;;;;;25.38;13.77;;;;;;;0.96;79.87;101742.72;5036381;28;20025;-94
2023/12/17 07:17:37;;;;;;;21.10;14.77;;;;;;;1.10;80.08;101746.66;5004205;28;20076;-93
2023/12/17 07:20:03;;;;;;;28.15;15.57;;;;;;;1.18;80.41;101741.47;5020805;28;20041;-93
2023/12/17 07:22:29;;;;;;;26.08;14.02;;;;;;;1.10;79.57;101723.66;5037279;28;20505;-93
2023/12/17 07:24:55;;;;;;;21.45;13.60;;;;;;;1.13;79.77;101715.38;5020030;28;20128;-93
2023/12/17 07:27:20;;;;;;;20.83;12.45;;;;;;;1.36;78.66;101726.41;5004927;28;20501;-93
2023/12/17 07:29:46;;;;;;;20.02;12.65;;;;;;;1.33;78.38;101718.75;5003965;28;20042;-93
2023/12/17 07:32:11;;;;;;;21.17;12.88;;;;;;;1.47;78.47;101735.16;5003745;28;20035;-93
2023/12/17 07:34:37;;;;;;;20.67;10.50;;;;;;;1.51;77.89;101731.22;5019662;28;20025;-92
2023/12/17 07:37:03;;;;;;;16.40;11.07;;;;;;;1.62;76.38;101741.63;5019591;28;20411;-94
2023/12/17 07:39:30;;;;;;;16.50;10.10;;;;;;;1.56;76.86;101728.94;5021143;28;20021;-94
2023/12/17 07:41:55;;;;;;;16.27;9.93;;;;;;;1.58;75.39;101732.28;5003877;28;20500;-92
2023/12/17 07:44:21;;;;;;;18.67;10.75;;;;;;;1.54;76.11;101757.47;5019619;28;20024;-93
2023/12/17 07:46:47;;;;;;;17.75;10.40;;;;;;;1.62;75.70;101741.63;5020566;28;20028;-94
2023/12/17 07:49:12;;;;;;;17.15;10.40;;;;;;;1.60;76.17;101743.59;5019389;28;20022;-93
2023/12/17 07:51:38;;;;;;;15.63;9.65;;;;;;;1.51;75.64;101736.50;5002962;28;20056;-92
2023/12/17 07:54:05;;;;;;;17.63;9.93;;;;;;;1.60;76.70;101740.94;5038646;28;20048;-92
2023/12/17 07:56:32;;;;;;;13.43;8.85;;;;;;;1.74;76.57;101764.31;5055445;28;20020;-92
2023/12/17 07:58:58;;;;;;;15.00;9.68;;;;;;;1.70;76.38;101754.13;5055765;28;20179;-92
2023/12/17 08:01:28;;;;;;;15.30;9.38;;;;;;;1.75;75.65;101743.91;5039229;28;20052;-93
2023/12/17 08:03:53;;;;;;;15.90;10.00;;;;;;;1.68;74.98;101735.72;5039028;28;20052;-94
2023/12/17 08:06:19;;;;;;;13.75;9.48;;;;;;;1.95;74.54;101765.81;5071528;28;20087;-93
2023/12/17 08:08:45;;;;;;;14.18;9.27;;;;;;;2.08;74.52;101760.13;5038306;28;20039;-93
2023/12/17 08:11:12;;;;;;;14.75;8.63;;;;;;;2.06;74.51;101743.50;5056191;28;20024;-92
2023/12/17 08:13:37;;;;;;;15.32;8.88;;;;;;;2.09;74.47;101751.16;5039707;28;20021;-91
2023/12/17 08:16:03;;;;;;;13.10;8.40;;;;;;;2.06;74.51;101747.00;5038405;28;20526;-91
2023/12/17 08:18:29;;;;;;;15.80;8.95;;;;;;;1.85;74.57;101731.38;5056733;28;20021;-94
2023/12/17 08:20:55;;;;;;;17.50;10.07;;;;;;;1.85;74.69;101719.91;5038771;28;20048;-92
2023/12/17 08:23:21;;;;;;;13.60;8.88;;;;;;;2.06;74.63;101746.16;5038670;28;20017;-91
2023/12/17 08:25:47;;;;;;;15.20;8.98;;;;;;;2.92;72.97;101735.53;5055577;28;20008;-93
2023/12/17 08:28:14;;;;;;;15.35;8.57;;;;;;;3.33;69.87;101705.59;5038987;28;20402;-92
2023/12/17 08:30:39;;;;;;;15.63;8.45;;;;;;;3.41;70.11;101733.06;5039182;28;20029;-93
2023/12/17 08:33:05;;;;;;;15.07;8.55;;;;;;;3.13;69.54;101723.66;5038740;28;20090;-92
2023/12/17 08:35:31;;;;;;;13.85;7.85;;;;;;;2.78;70.71;101696.22;5054888;28;20033;-93
2023/12/17 08:38:03;;;;;;;12.75;8.70;;;;;;;2.92;70.55;101689.47;5056151;28;20037;-92
2023/12/17 08:40:31;;;;;;;16.27;9.98;;;;;;;3.05;71.25;101705.84;5040007;28;20016;-92
2023/12/17 08:42:57;;;;;;;18.67;11.70;;;;;;;2.87;71.29;101699.78;5038115;28;20103;-92
2023/12/17 08:45:22;;;;;;;20.42;12.80;;;;;;;3.03;71.01;101690.03;5072001;28;20391;-93
2023/12/17 08:47:51;;;;;;;20.25;12.88;;;;;;;3.21;70.27;101710.38;5038617;28;20588;-93
2023/12/17 08:50:16;;;;;;;22.23;12.80;;;;;;;3.32;69.78;101712.75;5054612;28;20028;-92
2023/12/17 08:52:43;;;;;;;19.80;12.60;;;;;;;3.45;69.73;101733.56;5074552;28;20103;-92
2023/12/17 08:55:10;;;;;;;17.58;11.55;;;;;;;3.52;70.07;101728.41;5041766;28;20036;-92
2023/12/17 08:57:36;;;;;;;22.00;13.23;;;;;;;3.31;70.82;101688.94;5041510;28;20504;-93
2023/12/17 09:00:04;;;;;;;26.42;19.17;;;;;;;3.41;70.20;101695.78;5059026;28;20099;-93
2023/12/17 09:02:31;;;;;;;29.20;17.45;;;;;;;3.24;70.75;101672.78;5043210;28;20479;-93
2023/12/17 09:04:57;;;;;;;27.83;17.40;;;;;;;3.22;70.84;101688.91;5043883;28;20040;-92
2023/12/17 09:07:23;;;;;;;24.27;13.90;;;;;;;3.26;69.48;101677.94;5045088;28;20413;-92
2023/12/17 09:09:49;;;;;;;21.10;13.73;;;;;;;3.32;68.86;101693.25;5046049;28;20024;-92
2023/12/17 09:12:16;;;;;;;17.58;10.35;;;;;;;3.36;68.97;101690.13;5045478;28;20040;-92
2023/12/17 09:14:41;;;;;;;15.52;10.27;;;;;;;3.35;69.26;101663.66;5045759;28;20109;-91
2023/12/17 09:17:07;;;;;;;17.60;9.35;;;;;;;3.42;68.89;101660.19;5045831;28;20100;-91
2023/12/17 09:19:33;;;;;;;15.60;10.23;;;;;;;3.56;69.79;101703.94;5044758;28;20027;-92
2023/12/17 09:21:59;;;;;;;18.75;9.45;;;;;;;3.42;68.89;101668.16;5061885;28;20031;-91
2023/12/17 09:24:25;;;;;;;14.27;9.38;;;;;;;3.40;69.42;101677.28;5061568;28;20020;-93
2023/12/17 09:26:50;;;;;;;14.48;9.30;;;;;;;3.63;67.94;101686.31;5044820;28;20393;-93
2023/12/17 09:29:16;;;;;;;14.98;9.45;;;;;;;3.44;69.69;101659.97;5063063;28;20420;-94
2023/12/17 09:31:43;;;;;;;14.27;8.82;;;;;;;3.35;69.06;101645.84;5062728;28;20032;-94
2023/12/17 09:34:09;;;;;;;15.50;10.10;;;;;;;3.84;69.15;101698.31;5045795;28;20021;-93
2023/12/17 09:36:35;;;;;;;14.88;9.63;;;;;;;3.76;68.69;101671.69;5045582;28;20525;-94
2023/12/17 09:39:00;;;;;;;14.40;7.90;;;;;;;3.81;66.66;101661.34;5045624;28;20123;-94
2023/12/17 09:41:26;;;;;;;13.18;7.40;;;;;;;3.87;65.84;101667.84;5046055;28;20024;-94
2023/12/17 09:43:52;;;;;;;14.35;8.70;;;;;;;4.08;65.66;101696.63;5062254;28;20060;-94
2023/12/17 09:46:18;;;;;;;13.80;8.38;;;;;;;3.97;65.35;101669.31;5044968;28;20109;-94
2023/12/17 09:48:47;;;;;;;13.90;7.43;;;;;;;4.02;64.98;101658.97;5045516;28;20029;-93
2023/12/17 09:51:13;;;;;;;9.45;6.00;;;;;;;3.84;64.16;101637.84;5045675;28;20028;-93
2023/12/17 09:53:39;;;;;;;12.20;5.68;;;;;;;3.83;63.23;101624.69;5044939;28;20418;-95
2023/12/17 09:56:05;;;;;;;11.15;6.82;;;;;;;4.09;63.44;101634.31;5046857;28;20084;-94
2023/12/17 09:58:32;;;;;;;8.82;5.15;;;;;;;4.21;62.37;101646.28;5061694;28;20112;-95
2023/12/17 10:00:57;;;;;;;6.78;4.20;;;;;;;4.08;61.70;101612.16;5044978;28;20036;-94
2023/12/17 10:03:23;;;;;;;8.00;4.55;;;;;;;4.07;60.85;101607.84;5045483;28;20028;-92
2023/12/17 10:05:52;;;;;;;10.93;6.90;;;;;;;4.21;61.04;101616.94;5044892;28;20028;-93
2023/12/17 10:08:18;;;;;;;13.02;8.18;;;;;;;4.18;62.98;101599.47;5044232;28;20036;-93
2023/12/17 10:10:46;;;;;;;18.50;10.00;;;;;;;4.24;62.68;101606.78;5044902;28;20028;-92
2023/12/17 10:13:19;;;;;;;12.52;7.82;;;;;;;4.17;62.68;101591.63;5045764;28;20394;-91
2023/12/17 10:15:54;;;;;;;14.40;8.98;;;;;;;4.15;62.65;101596.31;5044552;28;20107;-93
2023/12/17 10:18:20;;;;;;;14.15;7.88;;;;;;;4.21;63.71;101601.81;5061689;28;20054;-92
2023/12/17 10:20:48;;;;;;;13.38;6.30;;;;;;;4.20;61.91;101584.13;5044658;28;20032;-92
2023/12/17 10:23:14;;;;;;;8.57;5.90;;;;;;;4.33;62.43;101596.09;5044880;28;20097;-92
2023/12/17 10:25:43;;;;;;;11.70;6.78;;;;;;;4.38;62.62;101591.91;5045079;28;20051;-92
2023/12/17 10:28:10;;;;;;;9.48;6.43;;;;;;;4.40;62.32;101591.72;5044867;28;20063;-92
2023/12/17 10:30:36;;;;;;;8.68;5.22;;;;;;;4.40;61.04;101581.91;5045484;28;20470;-93
2023/12/17 10:33:02;;;;;;;12.38;6.10;;;;;;;4.70;60.57;101613.28;5044434;28;20029;-92
2023/12/17 10:35:29;;;;;;;10.75;6.80;;;;;;;4.56;60.04;101599.66;5064783;28;20008;-92
2023/12/17 10:38:00;;;;;;;10.20;5.63;;;;;;;4.54;60.12;101590.16;5052188;28;20024;-93
2023/12/17 10:40:26;;;;;;;6.72;3.78;;;;;;;4.77;58.71;101611.56;5067451;28;20148;-92
2023/12/17 10:42:55;;;;;;;7.05;4.00;;;;;;;4.53;60.15;101592.00;5043448;28;20020;-93
2023/12/17 10:45:22;;;;;;;6.65;3.80;;;;;;;4.66;58.75;101610.94;5044576;28;20039;-93
2023/12/17 10:47:52;;;;;;;5.47;3.80;;;;;;;4.79;58.72;101625.56;5044545;28;20501;-93
2023/12/17 10:50:18;;;;;;;7.05;4.03;;;;;;;4.84;59.14;101623.22;5061530;28;20042;-92
2023/12/17 10:52:50;;;;;;;6.90;3.95;;;;;;;4.78;58.17;101598.06;5043112;28;20048;-92
2023/12/17 10:55:16;;;;;;;5.50;3.60;;;;;;;4.79;58.10;101605.06;5060173;28;20108;-93
2023/12/17 10:57:52;;;;;;;5.88;4.03;;;;;;;4.77;59.27;101583.06;5043665;28;20047;-93
2023/12/17 11:00:20;;;;;;;5.38;3.65;;;;;;;4.92;58.06;101599.16;5042842;28;20478;-93
2023/12/17 11:02:46;;;;;;;5.95;3.75;;;;;;;4.91;57.84;101589.47;5059700;28;20059;-93
2023/12/17 11:05:13;;;;;;;5.75;3.08;;;;;;;4.86;57.78;101589.19;5042469;28;20109;-92
2023/12/17 11:07:38;;;;;;;5.90;3.60;;;;;;;4.98;58.77;101584.25;5042510;28;20082;-92
2023/12/17 11:10:11;;;;;;;7.88;4.47;;;;;;;5.04;58.64;101588.88;5042830;28;20056;-92
2023/12/17 11:12:36;;;;;;;;;;;;;;;5.26;58.55;101608.59;5060895;28;20035;-92
2023/12/17 11:15:02;;;;;;;8.32;4.57;;;;;;;5.23;58.32;101585.75;5043131;28;19909;-92
2023/12/17 11:17:27;;;;;;;7.30;3.72;;;;;;;5.37;58.16;101597.47;5059768;28;20382;-93
2023/12/17 11:19:57;;;;;;;6.43;3.35;;;;;;;5.41;57.75;101587.28;5059249;28;20151;-92
2023/12/17 11:22:23;;;;;;;5.93;3.58;;;;;;;5.49;57.31;101573.03;5042109;28;20028;-94
2023/12/17 11:24:58;;;;;;;8.02;3.13;;;;;;;5.55;57.42;101591.84;5043128;28;20103;-92
2023/12/17 11:27:24;;;;;;;5.00;3.65;;;;;;;5.62;56.99;101579.44;5042321;28;20020;-93
2023/12/17 11:29:50;;;;;;;5.80;4.25;;;;;;;5.77;57.45;101587.47;5060177;28;20407;-92
2023/12/17 11:32:20;;;;;;;5.13;3.50;;;;;;;5.77;56.60;101570.56;5043632;28;20029;-94
2023/12/17 11:34:49;;;;;;;10.00;3.95;;;;;;;5.77;56.59;101544.69;5043396;28;20413;-93
2023/12/17 11:37:19;;;;;;;4.95;3.60;;;;;;;5.80;56.50;101538.97;5043776;28;20493;-91
2023/12/17 11:39:49;;;;;;;4.43;3.00;;;;;;;5.92;55.99;101535.88;5044659;28;20028;-94
2023/12/17 11:42:17;;;;;;;5.45;3.25;;;;;;;5.94;55.74;101537.34;5043874;28;20112;-94
2023/12/17 11:44:46;;;;;;;8.18;3.95;;;;;;;5.82;56.06;101525.44;5044021;28;20066;-93
2023/12/17 11:47:12;;;;;;;9.68;5.45;;;;;;;5.92;55.73;101520.63;5043236;28;20032;-91
2023/12/17 11:49:38;;;;;;;6.10;4.30;;;;;;;5.89;55.80;101521.00;5043116;28;20036;-93
2023/12/17 11:52:20;;;;;;;5.50;3.53;;;;;;;5.89;56.61;101534.34;5044574;28;20020;-92
2023/12/17 11:54:47;;;;;;;5.88;3.58;;;;;;;5.88;56.01;101524.69;5061548;28;20040;-91
2023/12/17 11:57:19;;;;;;;5.07;3.15;;;;;;;6.03;55.15;101546.94;5043679;28;20511;-90
2023/12/17 11:59:45;;;;;;;7.05;3.30;;;;;;;5.97;55.64;101526.28;5059550;28;20489;-91
2023/12/17 12:02:11;;;;;;;5.95;3.38;;;;;;;5.97;55.54;101515.59;5060111;28;20044;-92
2023/12/17 12:04:40;;;;;;;5.03;3.47;;;;;;;6.14;54.64;101534.13;5076828;28;20558;-91
2023/12/17 12:07:05;;;;;;;4.57;3.03;;;;;;;6.00;53.40;101530.44;5060765;28;20036;-92
2023/12/17 12:09:31;;;;;;;9.15;3.45;;;;;;;5.93;54.06;101519.63;5060817;28;20096;-94
2023/12/17 12:11:57;;;;;;;3.63;2.70;;;;;;;5.72;53.20;101498.13;5043585;28;20162;-92